createdAt,value
2018-07-22T00:01:47.305Z,5.57
2018-07-22T00:04:15.428Z,5.90
2018-07-22T00:06:43.497Z,5.80
2018-07-22T00:09:12.970Z,6.00
2018-07-22T00:11:41.428Z,5.60
2018-07-22T00:14:09.576Z,5.80
2018-07-22T00:16:37.858Z,4.90
2018-07-22T00:19:06.061Z,5.60
2018-07-22T00:21:34.905Z,5.43
2018-07-22T00:24:03.047Z,5.60
2018-07-22T00:26:31.119Z,5.73
2018-07-22T00:28:59.298Z,5.43
2018-07-22T00:31:27.373Z,5.80
2018-07-22T00:33:55.511Z,6.57
2018-07-22T00:36:23.674Z,5.03
2018-07-22T00:38:51.732Z,5.70
2018-07-22T00:41:19.800Z,5.83
2018-07-22T00:43:47.869Z,6.10
2018-07-22T00:46:16.209Z,5.87
2018-07-22T00:48:44.381Z,5.77
2018-07-22T00:51:12.476Z,6.50
2018-07-22T00:53:40.610Z,5.30
2018-07-22T00:56:08.674Z,5.50
2018-07-22T00:58:36.929Z,6.00
2018-07-22T01:01:05.172Z,6.10
2018-07-22T01:03:33.238Z,6.53
2018-07-22T01:06:01.455Z,6.13
2018-07-22T01:08:29.502Z,6.70
2018-07-22T01:10:57.682Z,6.00
2018-07-22T01:13:25.737Z,6.77
2018-07-22T01:15:53.833Z,6.93
2018-07-22T01:18:21.984Z,6.70
2018-07-22T01:20:50.072Z,6.77
2018-07-22T01:23:18.117Z,6.50
2018-07-22T01:25:46.164Z,7.20
2018-07-22T01:28:14.253Z,6.53
2018-07-22T01:30:42.330Z,7.00
2018-07-22T01:33:10.417Z,6.30
2018-07-22T01:35:38.475Z,5.93
2018-07-22T01:38:07.030Z,5.60
2018-07-22T01:40:35.103Z,6.40
2018-07-22T01:43:03.218Z,6.13
2018-07-22T01:45:31.261Z,5.77
2018-07-22T01:47:59.325Z,6.53
2018-07-22T01:50:27.396Z,6.23
2018-07-22T01:52:55.445Z,6.20
2018-07-22T01:55:23.518Z,6.17
2018-07-22T01:57:51.560Z,7.30
2018-07-22T02:00:19.653Z,7.13
2018-07-22T02:02:47.729Z,6.50
2018-07-22T02:05:15.806Z,6.73
2018-07-22T02:07:43.881Z,7.53
2018-07-22T02:10:11.983Z,7.00
2018-07-22T02:12:40.081Z,6.90
2018-07-22T02:15:08.132Z,7.27
2018-07-22T02:17:36.285Z,6.23
2018-07-22T02:20:04.500Z,6.17
2018-07-22T02:22:32.577Z,6.53
2018-07-22T02:25:00.620Z,7.13
2018-07-22T02:27:28.673Z,6.63
2018-07-22T02:29:56.765Z,7.03
2018-07-22T02:32:24.813Z,6.83
2018-07-22T02:34:52.868Z,7.17
2018-07-22T02:37:21.626Z,7.10
2018-07-22T02:39:49.684Z,7.30
2018-07-22T02:42:17.733Z,7.27
2018-07-22T02:44:45.816Z,10.83
2018-07-22T02:47:13.865Z,10.50
2018-07-22T02:49:41.982Z,11.10
2018-07-22T02:52:10.078Z,8.43
2018-07-22T02:54:38.143Z,8.67
2018-07-22T02:57:06.956Z,8.23
2018-07-22T02:59:35.025Z,8.40
2018-07-22T03:02:03.160Z,8.07
2018-07-22T03:04:31.216Z,8.67
2018-07-22T03:06:59.258Z,8.60
2018-07-22T03:09:27.312Z,8.27
2018-07-22T03:11:55.340Z,8.83
2018-07-22T03:14:23.391Z,9.27
2018-07-22T03:16:51.421Z,8.00
2018-07-22T03:19:19.482Z,9.33
2018-07-22T03:21:47.531Z,8.67
2018-07-22T03:24:15.574Z,9.07
2018-07-22T03:26:43.641Z,10.27
2018-07-22T03:29:11.712Z,8.43
2018-07-22T03:31:39.741Z,8.80
2018-07-22T03:34:07.895Z,9.67
2018-07-22T03:36:35.983Z,9.53
2018-07-22T03:39:06.208Z,9.37
2018-07-22T03:41:34.272Z,10.80
2018-07-22T03:44:02.335Z,8.63
2018-07-22T03:46:30.410Z,9.07
2018-07-22T03:48:58.460Z,9.17
2018-07-22T03:51:26.524Z,9.27
2018-07-22T03:53:54.560Z,9.30
2018-07-22T03:56:22.609Z,9.23
2018-07-22T03:58:50.764Z,9.90
2018-07-22T04:01:18.804Z,9.23
2018-07-22T04:03:46.829Z,9.17
2018-07-22T04:06:14.880Z,9.60
2018-07-22T04:08:42.937Z,8.77
2018-07-22T04:11:10.975Z,10.13
2018-07-22T04:13:39.008Z,9.03
2018-07-22T04:16:07.063Z,9.63
2018-07-22T04:18:39.386Z,9.13
2018-07-22T04:21:07.412Z,9.90
2018-07-22T04:23:35.453Z,9.40
2018-07-22T04:26:03.552Z,10.00
2018-07-22T04:28:31.596Z,9.07
2018-07-22T04:30:59.629Z,9.00
2018-07-22T04:33:27.683Z,10.20
2018-07-22T04:35:55.733Z,10.50
2018-07-22T04:38:23.797Z,11.47
2018-07-22T04:40:51.830Z,9.93
2018-07-22T04:43:19.877Z,10.33
2018-07-22T04:45:47.909Z,9.13
2018-07-22T04:48:16.088Z,10.57
2018-07-22T04:53:18.740Z,11.00
2018-07-22T04:55:46.789Z,11.07
2018-07-22T04:58:14.824Z,11.37
2018-07-22T05:00:42.889Z,10.20
2018-07-22T05:03:10.952Z,10.87
2018-07-22T05:05:38.981Z,10.50
2018-07-22T05:08:07.048Z,11.40
2018-07-22T05:10:35.090Z,11.53
2018-07-22T05:13:03.153Z,11.20
2018-07-22T05:15:31.210Z,11.00
2018-07-22T05:17:59.238Z,10.27
2018-07-22T05:20:27.329Z,10.17
2018-07-22T05:22:55.429Z,9.87
2018-07-22T05:25:23.472Z,10.07
2018-07-22T05:27:51.516Z,8.90
2018-07-22T05:30:19.588Z,9.90
2018-07-22T05:32:47.646Z,8.40
2018-07-22T05:35:15.717Z,8.73
2018-07-22T05:37:43.761Z,9.17
2018-07-22T05:40:11.816Z,8.23
2018-07-22T05:42:39.865Z,8.40
2018-07-22T05:45:07.909Z,8.43
2018-07-22T05:47:35.968Z,8.67
2018-07-22T05:50:04.441Z,7.80
2018-07-22T05:52:32.505Z,8.13
2018-07-22T05:55:00.579Z,7.43
2018-07-22T05:57:28.715Z,7.10
2018-07-22T05:59:56.783Z,7.60
2018-07-22T06:02:24.849Z,7.23
2018-07-22T06:04:59.329Z,7.67
2018-07-22T06:07:27.418Z,6.63
2018-07-22T06:09:55.440Z,7.70
2018-07-22T06:12:24.489Z,6.83
2018-07-22T06:14:52.568Z,5.80
2018-07-22T06:17:20.813Z,6.27
2018-07-22T06:19:49.100Z,6.20
2018-07-22T06:22:18.226Z,6.97
2018-07-22T06:24:46.359Z,6.30
2018-07-22T06:27:14.401Z,6.77
2018-07-22T06:29:42.465Z,5.90
2018-07-22T06:32:10.637Z,4.77
2018-07-22T06:34:38.729Z,4.40
2018-07-22T06:37:07.032Z,4.97
2018-07-22T06:39:35.101Z,5.03
2018-07-22T06:42:03.177Z,4.43
2018-07-22T06:44:31.884Z,4.40
2018-07-22T06:46:59.960Z,4.30
2018-07-22T06:49:28.305Z,4.10
2018-07-22T06:51:56.412Z,3.77
2018-07-22T06:54:24.575Z,4.87
2018-07-22T06:56:52.606Z,4.40
2018-07-22T06:59:20.665Z,4.93
2018-07-22T07:01:48.786Z,8.53
2018-07-22T07:04:16.913Z,4.23
2018-07-22T07:06:45.030Z,3.73
2018-07-22T07:09:13.161Z,3.90
2018-07-22T07:11:41.257Z,4.07
2018-07-22T07:14:09.908Z,5.50
2018-07-22T07:16:38.182Z,3.70
2018-07-22T07:19:06.370Z,3.80
2018-07-22T07:21:34.406Z,6.00
2018-07-22T07:24:02.472Z,5.40
2018-07-22T07:26:30.519Z,4.50
2018-07-22T07:28:58.561Z,4.93
2018-07-22T07:31:26.637Z,3.80
2018-07-22T07:33:54.689Z,3.63
2018-07-22T07:36:22.747Z,5.37
2018-07-22T07:38:50.816Z,4.40
2018-07-22T07:41:18.857Z,6.77
2018-07-22T07:43:46.948Z,2.60
2018-07-22T07:46:15.061Z,2.77
2018-07-22T07:48:43.101Z,2.63
2018-07-22T07:51:11.160Z,2.10
2018-07-22T07:53:39.197Z,2.13
2018-07-22T07:56:07.470Z,2.33
2018-07-22T07:58:35.553Z,1.90
2018-07-22T08:01:03.629Z,2.30
2018-07-22T08:03:31.729Z,2.00
2018-07-22T08:05:59.833Z,2.20
2018-07-22T08:08:27.880Z,2.33
2018-07-22T08:10:55.929Z,2.53
2018-07-22T08:13:23.948Z,1.90
2018-07-22T08:15:52.120Z,2.27
2018-07-22T08:18:20.154Z,1.70
2018-07-22T08:20:48.221Z,2.20
2018-07-22T08:23:16.281Z,2.37
2018-07-22T08:25:44.364Z,1.90
2018-07-22T08:28:12.420Z,2.20
2018-07-22T08:30:40.449Z,2.47
2018-07-22T08:33:08.500Z,2.40
2018-07-22T08:35:37.163Z,1.90
2018-07-22T08:38:05.213Z,1.70
2018-07-22T08:40:33.781Z,2.03
2018-07-22T08:43:01.817Z,2.20
2018-07-22T08:45:29.980Z,2.27
2018-07-22T08:47:58.037Z,2.23
2018-07-22T08:50:26.085Z,1.80
2018-07-22T08:52:54.137Z,1.70
2018-07-22T08:55:22.180Z,2.10
2018-07-22T08:57:50.245Z,2.43
2018-07-22T09:00:18.291Z,1.87
2018-07-22T09:02:47.465Z,3.90
2018-07-22T09:05:15.529Z,2.20
2018-07-22T09:07:43.577Z,1.73
2018-07-22T09:10:11.648Z,1.77
2018-07-22T09:12:39.972Z,2.10
2018-07-22T09:15:08.026Z,1.90
2018-07-22T09:17:36.140Z,1.53
2018-07-22T09:20:05.260Z,2.17
2018-07-22T09:22:33.285Z,1.40
2018-07-22T09:25:01.363Z,1.40
2018-07-22T09:27:29.413Z,1.60
2018-07-22T09:29:57.444Z,3.20
2018-07-22T09:32:25.529Z,2.07
2018-07-22T09:34:53.586Z,1.50
2018-07-22T09:37:21.656Z,1.67
2018-07-22T09:39:49.732Z,2.00
2018-07-22T09:42:17.748Z,1.90
2018-07-22T09:44:45.856Z,2.90
2018-07-22T09:47:13.908Z,2.00
2018-07-22T09:49:41.996Z,2.20
2018-07-22T09:52:10.055Z,1.80
2018-07-22T09:54:38.093Z,2.10
2018-07-22T09:57:06.121Z,2.73
2018-07-22T09:59:34.160Z,4.27
2018-07-22T10:02:02.202Z,2.40
2018-07-22T10:04:30.292Z,3.00
2018-07-22T10:06:58.184Z,2.33
2018-07-22T10:09:26.718Z,2.80
2018-07-22T10:11:54.804Z,2.57
2018-07-22T10:14:23.815Z,2.33
2018-07-22T10:16:51.783Z,2.30
2018-07-22T10:19:19.816Z,2.03
2018-07-22T10:21:47.997Z,1.70
2018-07-22T10:24:16.041Z,1.80
2018-07-22T10:26:44.064Z,1.93
2018-07-22T10:29:12.105Z,2.40
2018-07-22T10:31:40.157Z,2.20
2018-07-22T10:34:10.076Z,2.43
2018-07-22T10:36:38.156Z,2.10
2018-07-22T10:39:08.546Z,2.30
2018-07-22T10:41:36.755Z,2.10
2018-07-22T10:44:04.927Z,2.17
2018-07-22T10:46:33.010Z,2.63
2018-07-22T10:49:01.086Z,2.63
2018-07-22T10:51:29.105Z,2.37
2018-07-22T10:53:57.134Z,2.40
2018-07-22T10:56:25.189Z,2.20
2018-07-22T10:58:53.221Z,2.57
2018-07-22T11:01:21.280Z,2.33
2018-07-22T11:03:49.357Z,2.00
2018-07-22T11:06:17.412Z,2.20
2018-07-22T11:08:45.457Z,2.40
2018-07-22T11:11:13.513Z,2.20
2018-07-22T11:13:41.540Z,2.30
2018-07-22T11:16:09.580Z,3.13
2018-07-22T11:18:37.645Z,2.67
2018-07-22T11:21:05.726Z,2.40
2018-07-22T11:23:33.780Z,2.10
2018-07-22T11:26:01.832Z,2.60
2018-07-22T11:28:29.873Z,3.03
2018-07-22T11:30:57.936Z,3.57
2018-07-22T11:33:25.993Z,3.20
2018-07-22T11:35:54.067Z,2.30
2018-07-22T11:38:22.120Z,2.57
2018-07-22T11:40:50.175Z,2.73
2018-07-22T11:43:18.200Z,2.70
2018-07-22T11:45:46.264Z,2.57
2018-07-22T11:48:14.324Z,2.17
2018-07-22T11:50:42.509Z,2.10
2018-07-22T11:53:10.896Z,2.10
2018-07-22T11:55:38.977Z,2.23
2018-07-22T11:58:07.176Z,2.03
2018-07-22T12:00:35.222Z,2.33
2018-07-22T12:03:03.280Z,2.27
2018-07-22T12:05:31.308Z,2.30
2018-07-22T12:07:59.368Z,1.87
2018-07-22T12:10:27.413Z,2.00
2018-07-22T12:12:55.461Z,2.10
2018-07-22T12:15:23.520Z,2.23
2018-07-22T12:17:51.565Z,2.10
2018-07-22T12:20:19.615Z,1.83
2018-07-22T12:22:47.652Z,1.83
2018-07-22T12:25:16.000Z,1.40
2018-07-22T12:27:44.069Z,1.80
2018-07-22T12:30:12.129Z,1.93
2018-07-22T12:32:40.314Z,1.83
2018-07-22T12:35:08.383Z,2.03
2018-07-22T12:37:36.416Z,1.70
2018-07-22T12:40:04.502Z,1.80
2018-07-22T12:42:32.544Z,1.60
2018-07-22T12:45:00.645Z,1.60
2018-07-22T12:47:28.704Z,2.23
2018-07-22T12:49:56.741Z,1.90
2018-07-22T12:52:24.804Z,1.73
2018-07-22T12:54:52.854Z,1.80
2018-07-22T12:57:20.896Z,2.07
2018-07-22T12:59:48.969Z,1.63
2018-07-22T13:02:17.019Z,1.50
2018-07-22T13:04:45.071Z,2.23
2018-07-22T13:07:13.109Z,2.10
2018-07-22T13:09:41.166Z,2.50
2018-07-22T13:12:09.207Z,1.40
2018-07-22T13:14:37.264Z,1.90
2018-07-22T13:17:05.349Z,1.60
2018-07-22T13:19:33.389Z,1.57
2018-07-22T13:22:01.421Z,1.77
2018-07-22T13:24:29.476Z,1.63
2018-07-22T13:26:57.509Z,1.80
2018-07-22T13:29:25.560Z,2.40
2018-07-22T13:31:53.602Z,2.30
2018-07-22T13:34:21.657Z,1.73
2018-07-22T13:36:49.728Z,1.60
2018-07-22T13:39:17.763Z,1.60
2018-07-22T13:41:45.880Z,2.20
2018-07-22T13:44:13.926Z,2.10
2018-07-22T13:46:41.984Z,1.77
2018-07-22T13:49:10.044Z,1.83
2018-07-22T13:51:38.089Z,2.40
2018-07-22T13:54:06.186Z,2.13
2018-07-22T13:56:34.226Z,2.03
2018-07-22T13:59:03.336Z,2.10
2018-07-22T14:01:31.396Z,2.90
2018-07-22T14:03:59.429Z,2.00
2018-07-22T14:06:27.489Z,2.30
2018-07-22T14:08:55.560Z,2.10
2018-07-22T14:11:23.668Z,1.53
2018-07-22T14:13:51.721Z,1.87
2018-07-22T14:16:19.756Z,1.50
2018-07-22T14:18:47.835Z,1.93
2018-07-22T14:21:15.892Z,1.80
2018-07-22T14:23:43.921Z,2.20
2018-07-22T14:26:11.969Z,2.20
2018-07-22T14:28:39.996Z,2.20
2018-07-22T14:31:08.148Z,2.00
2018-07-22T14:33:36.172Z,1.77
2018-07-22T14:36:04.249Z,1.70
2018-07-22T14:38:32.316Z,2.07
2018-07-22T14:41:00.568Z,1.43
2018-07-22T14:43:28.377Z,1.73
2018-07-22T14:45:56.429Z,1.33
2018-07-22T14:48:24.477Z,2.47
2018-07-22T14:50:52.496Z,2.10
2018-07-22T14:55:48.612Z,2.50
2018-07-22T14:58:16.640Z,2.13
2018-07-22T15:00:44.708Z,2.07
2018-07-22T15:03:12.743Z,1.97
2018-07-22T15:05:40.810Z,2.17
2018-07-22T15:08:08.840Z,1.60
2018-07-22T15:10:36.877Z,1.90
2018-07-22T15:13:04.932Z,3.17
2018-07-22T15:15:32.984Z,2.57
2018-07-22T15:18:01.029Z,1.90
2018-07-22T15:20:29.120Z,1.93
2018-07-22T15:22:57.168Z,2.43
2018-07-22T15:25:25.360Z,1.87
2018-07-22T15:27:53.433Z,1.70
2018-07-22T15:30:21.465Z,1.73
2018-07-22T15:32:49.512Z,2.00
2018-07-22T15:35:17.579Z,2.20
2018-07-22T15:37:45.800Z,2.00
2018-07-22T15:40:13.945Z,1.80
2018-07-22T15:42:41.968Z,1.77
2018-07-22T15:45:09.754Z,1.50
2018-07-22T15:47:37.793Z,2.17
2018-07-22T15:50:05.971Z,1.67
2018-07-22T15:52:34.032Z,1.57
2018-07-22T15:55:02.109Z,1.53
2018-07-22T15:57:30.133Z,1.50
2018-07-22T15:59:58.174Z,1.70
2018-07-22T16:02:26.247Z,1.30
2018-07-22T16:04:54.304Z,1.77
2018-07-22T16:07:22.608Z,1.50
2018-07-22T16:09:50.642Z,1.23
2018-07-22T16:12:18.668Z,1.60
2018-07-22T16:14:46.739Z,1.70
2018-07-22T16:17:14.776Z,1.70
2018-07-22T16:19:42.812Z,2.10
2018-07-22T16:22:10.940Z,1.77
2018-07-22T16:24:38.973Z,2.03
2018-07-22T16:27:07.045Z,1.77
2018-07-22T16:29:35.087Z,1.53
2018-07-22T16:32:03.163Z,1.80
2018-07-22T16:34:31.202Z,1.60
2018-07-22T16:36:59.237Z,2.27
2018-07-22T16:39:27.294Z,1.20
2018-07-22T16:41:55.328Z,2.00
2018-07-22T16:44:23.364Z,1.90
2018-07-22T16:46:51.422Z,1.90
2018-07-22T16:49:19.453Z,2.00
2018-07-22T16:51:47.529Z,1.50
2018-07-22T16:54:15.552Z,1.90
2018-07-22T16:56:43.633Z,2.23
2018-07-22T16:59:11.691Z,1.90
2018-07-22T17:01:39.745Z,1.80
2018-07-22T17:04:07.776Z,1.90
2018-07-22T17:06:35.833Z,1.97
2018-07-22T17:09:06.264Z,1.77
2018-07-22T17:11:34.341Z,2.20
2018-07-22T17:14:02.405Z,1.80
2018-07-22T17:16:30.432Z,1.70
2018-07-22T17:18:58.526Z,2.03
2018-07-22T17:21:26.472Z,1.93
2018-07-22T17:23:54.541Z,1.90
2018-07-22T17:26:22.580Z,2.43
2018-07-22T17:28:50.629Z,1.70
2018-07-22T17:31:18.785Z,1.60
2018-07-22T17:33:46.881Z,2.27
2018-07-22T17:36:14.937Z,1.13
2018-07-22T17:38:43.046Z,1.70
2018-07-22T17:41:10.977Z,2.10
2018-07-22T17:43:39.016Z,1.63
2018-07-22T17:46:07.068Z,1.67
2018-07-22T17:48:35.128Z,1.70
2018-07-22T17:51:03.221Z,1.50
2018-07-22T17:53:31.224Z,2.00
2018-07-22T17:55:59.277Z,1.73
2018-07-22T17:58:27.306Z,1.47
2018-07-22T18:00:55.380Z,1.40
2018-07-22T18:03:25.502Z,1.60
2018-07-22T18:05:53.544Z,1.93
2018-07-22T18:08:21.975Z,1.47
2018-07-22T18:10:50.973Z,1.33
2018-07-22T18:13:19.009Z,1.53
2018-07-22T18:15:47.059Z,1.70
2018-07-22T18:18:15.420Z,1.53
2018-07-22T18:20:44.699Z,1.37
2018-07-22T18:23:12.736Z,1.57
2018-07-22T18:25:41.364Z,1.67
2018-07-22T18:28:09.394Z,2.00
2018-07-22T18:30:37.441Z,1.57
2018-07-22T18:33:05.577Z,1.40
2018-07-22T18:35:33.737Z,0.93
2018-07-22T18:38:01.825Z,1.40
2018-07-22T18:40:29.968Z,1.40
2018-07-22T18:42:57.996Z,1.97
2018-07-22T18:45:26.037Z,1.43
2018-07-22T18:47:54.572Z,1.90
2018-07-22T18:50:22.724Z,1.47
2018-07-22T18:52:50.744Z,1.50
2018-07-22T18:55:18.803Z,1.93
2018-07-22T18:57:46.871Z,1.70
2018-07-22T19:00:14.961Z,1.23
2018-07-22T19:02:43.121Z,1.60
2018-07-22T19:05:11.177Z,1.27
2018-07-22T19:07:39.238Z,2.27
2018-07-22T19:10:07.770Z,2.60
2018-07-22T19:12:35.800Z,1.93
2018-07-22T19:15:04.295Z,2.20
2018-07-22T19:17:32.333Z,1.53
2018-07-22T19:20:00.375Z,1.27
2018-07-22T19:22:28.521Z,1.30
2018-07-22T19:24:56.568Z,1.70
2018-07-22T19:27:24.730Z,1.30
2018-07-22T19:29:52.785Z,1.20
2018-07-22T19:32:20.867Z,1.70
2018-07-22T19:34:48.993Z,3.07
2018-07-22T19:37:17.072Z,1.60
2018-07-22T19:39:45.549Z,2.10
2018-07-22T19:42:13.680Z,1.70
2018-07-22T19:44:41.792Z,2.07
2018-07-22T19:47:09.863Z,2.13
2018-07-22T19:49:37.909Z,3.07
2018-07-22T19:52:06.220Z,2.73
2018-07-22T19:54:34.160Z,4.07
2018-07-22T19:57:02.236Z,3.83
2018-07-22T19:59:30.344Z,2.97
2018-07-22T20:01:58.400Z,1.80
2018-07-22T20:04:26.464Z,3.63
2018-07-22T20:06:54.587Z,2.50
2018-07-22T20:09:22.622Z,1.60
2018-07-22T20:11:50.697Z,2.97
2018-07-22T20:14:18.842Z,3.17
2018-07-22T20:16:46.884Z,2.60
2018-07-22T20:19:14.925Z,2.57
2018-07-22T20:21:43.001Z,2.27
2018-07-22T20:24:11.114Z,1.60
2018-07-22T20:26:39.133Z,2.00
2018-07-22T20:29:07.183Z,2.13
2018-07-22T20:31:35.251Z,2.17
2018-07-22T20:34:03.309Z,2.07
2018-07-22T20:36:31.465Z,2.40
2018-07-22T20:38:59.530Z,1.67
2018-07-22T20:41:27.548Z,2.00
2018-07-22T20:43:55.655Z,1.67
2018-07-22T20:46:23.700Z,1.97
2018-07-22T20:48:51.812Z,2.17
2018-07-22T20:51:19.956Z,3.20
2018-07-22T20:53:48.013Z,2.50
2018-07-22T20:56:15.875Z,3.53
2018-07-22T20:58:43.944Z,2.37
2018-07-22T21:01:12.010Z,1.83
2018-07-22T21:03:40.092Z,1.97
2018-07-22T21:06:08.236Z,1.80
2018-07-22T21:08:36.417Z,2.00
2018-07-22T21:11:04.542Z,2.30
2018-07-22T21:13:32.600Z,2.20
2018-07-22T21:16:00.693Z,1.50
2018-07-22T21:18:28.781Z,2.10
2018-07-22T21:20:56.917Z,1.80
2018-07-22T21:23:24.924Z,1.87
2018-07-22T21:25:53.002Z,1.63
2018-07-22T21:28:21.036Z,2.23
2018-07-22T21:30:49.077Z,2.20
2018-07-22T21:33:17.168Z,2.33
2018-07-22T21:35:45.204Z,2.77
2018-07-22T21:38:13.336Z,2.00
2018-07-22T21:40:41.381Z,2.23
2018-07-22T21:43:09.416Z,2.40
2018-07-22T21:45:37.484Z,2.80
2018-07-22T21:48:05.552Z,2.33
2018-07-22T21:50:33.696Z,2.43
2018-07-22T21:53:01.889Z,2.47
2018-07-22T21:55:30.017Z,2.57
2018-07-22T21:57:58.063Z,1.80
2018-07-22T22:00:32.005Z,2.10
2018-07-22T22:03:01.572Z,2.10
2018-07-22T22:05:29.753Z,2.27
2018-07-22T22:07:57.845Z,2.10
2018-07-22T22:10:26.445Z,2.40
2018-07-22T22:12:55.136Z,2.30
2018-07-22T22:15:29.241Z,2.23
2018-07-22T22:18:00.503Z,2.10
2018-07-22T22:20:28.953Z,2.17
2018-07-22T22:22:57.244Z,1.97
2018-07-22T22:25:25.360Z,2.27
2018-07-22T22:27:53.608Z,2.50
2018-07-22T22:30:21.716Z,2.17
2018-07-22T22:32:49.748Z,1.60
2018-07-22T22:35:17.806Z,2.47
2018-07-22T22:37:46.212Z,2.73
2018-07-22T22:40:15.124Z,2.23
2018-07-22T22:42:44.500Z,2.67
2018-07-22T22:45:12.803Z,2.70
2018-07-22T22:47:40.853Z,3.07
2018-07-22T22:50:08.889Z,2.87
2018-07-22T22:52:36.788Z,3.00
2018-07-22T22:55:04.864Z,3.57
2018-07-22T22:57:32.924Z,4.13
2018-07-22T23:00:00.985Z,4.17
2018-07-22T23:02:34.044Z,6.07
2018-07-22T23:05:02.110Z,6.67
2018-07-22T23:07:30.164Z,7.40
2018-07-22T23:09:58.220Z,6.60
2018-07-22T23:12:26.273Z,7.73
2018-07-22T23:14:54.324Z,5.47
2018-07-22T23:17:22.351Z,6.03
2018-07-22T23:19:50.508Z,5.70
2018-07-22T23:22:18.567Z,5.00
2018-07-22T23:24:46.604Z,5.20
2018-07-22T23:27:14.672Z,4.40
2018-07-22T23:29:42.740Z,4.90
2018-07-22T23:32:10.803Z,4.03
2018-07-22T23:34:38.855Z,7.00
2018-07-22T23:37:06.904Z,7.53
2018-07-22T23:39:34.984Z,9.33
2018-07-22T23:42:03.025Z,11.37
2018-07-22T23:44:31.070Z,9.07
2018-07-22T23:46:59.144Z,9.33
2018-07-22T23:49:27.192Z,9.40
2018-07-22T23:51:55.213Z,8.77
2018-07-22T23:54:23.278Z,9.53
2018-07-22T23:56:51.348Z,8.87
2018-07-22T23:59:19.420Z,8.87
